Time,TemperatureF,DewpointF,PressureIn,WindDirection,WindDirectionDegrees,WindSpeedMPH,WindSpeedGustMPH,Humidity,HourlyPrecipIn,Conditions,Clouds,dailyrainin,SolarRadiationWatts/m^2,SoftwareType,DateUTC
2013-04-13 00:02:00,67.0,38.0,-100.00,SE,127,9.0,14.0,35,0.00,,,0.00,1.000000,,2013-04-13 05:02:00,
2013-04-13 00:32:00,64.0,40.0,-100.00,SE,134,9.0,12.0,42,0.00,,,0.00,1.000000,,2013-04-13 05:32:00,
2013-04-13 00:43:00,64.0,40.0,-100.00,SE,134,9.0,12.0,42,0.00,,,0.00,1.000000,,2013-04-13 05:43:00,
2013-04-13 00:52:00,64.0,40.0,-100.00,SE,134,9.0,12.0,42,0.00,,,0.00,1.000000,,2013-04-13 05:52:00,
2013-04-13 01:02:00,64.0,40.0,-100.00,SE,134,9.0,12.0,42,0.00,,,0.00,1.000000,,2013-04-13 06:02:00,
2013-04-13 01:36:00,64.0,41.0,-100.00,SE,146,12.0,17.0,43,0.00,,,0.00,1.000000,,2013-04-13 06:36:00,
2013-04-13 01:49:00,64.0,41.0,-100.00,SE,146,12.0,17.0,43,0.00,,,0.00,1.000000,,2013-04-13 06:49:00,
2013-04-13 01:55:00,64.0,41.0,-100.00,SE,146,12.0,17.0,43,0.00,,,0.00,1.000000,,2013-04-13 06:55:00,
2013-04-13 02:05:00,64.0,41.0,-100.00,SE,146,12.0,17.0,43,0.00,,,0.00,1.000000,,2013-04-13 07:05:00,
2013-04-13 02:35:00,63.0,41.0,-100.00,SE,145,10.0,17.0,44,0.00,,,0.00,1.000000,,2013-04-13 07:35:00,
2013-04-13 02:45:00,63.0,41.0,-100.00,SE,145,10.0,17.0,44,0.00,,,0.00,1.000000,,2013-04-13 07:45:00,
2013-04-13 02:56:00,63.0,41.0,-100.00,SE,145,10.0,17.0,44,0.00,,,0.00,1.000000,,2013-04-13 07:56:00,
2013-04-13 03:06:00,63.0,41.0,-100.00,SE,145,10.0,17.0,44,0.00,,,0.00,1.000000,,2013-04-13 08:06:00,
2013-04-13 03:35:00,62.0,41.0,-100.00,SSE,151,12.0,17.0,46,0.00,,,0.00,1.000000,,2013-04-13 08:35:00,
2013-04-13 03:47:00,62.0,41.0,-100.00,SSE,151,12.0,17.0,46,0.00,,,0.00,1.000000,,2013-04-13 08:47:00,
2013-04-13 03:54:00,62.0,41.0,-100.00,SSE,151,12.0,17.0,46,0.00,,,0.00,1.000000,,2013-04-13 08:54:00,
2013-04-13 04:05:00,62.0,41.0,-100.00,SSE,151,12.0,17.0,46,0.00,,,0.00,1.000000,,2013-04-13 09:05:00,
2013-04-13 04:38:00,61.0,40.0,-100.00,SSE,151,12.0,19.0,45,0.00,,,0.00,1.000000,,2013-04-13 09:38:00,
2013-04-13 04:53:00,61.0,40.0,-100.00,SSE,151,12.0,19.0,45,0.00,,,0.00,1.000000,,2013-04-13 09:53:00,
2013-04-13 05:05:00,61.0,40.0,-100.00,SSE,151,12.0,19.0,45,0.00,,,0.00,1.000000,,2013-04-13 10:05:00,
2013-04-13 05:38:00,58.0,39.0,-100.00,SE,140,9.0,17.0,49,0.00,,,0.00,1.000000,,2013-04-13 10:38:00,
2013-04-13 05:50:00,58.0,39.0,-100.00,SE,140,9.0,17.0,49,0.00,,,0.00,1.000000,,2013-04-13 10:50:00,
2013-04-13 05:55:00,58.0,39.0,-100.00,SE,140,9.0,17.0,49,0.00,,,0.00,1.000000,,2013-04-13 10:55:00,
2013-04-13 06:07:00,57.0,36.0,-100.00,SE,134,7.0,14.0,45,0.00,,,0.00,1.000000,,2013-04-13 11:07:00,
2013-04-13 06:35:00,57.0,36.0,-100.00,SE,134,7.0,14.0,45,0.00,,,0.00,1.000000,,2013-04-13 11:35:00,
2013-04-13 06:46:00,57.0,36.0,-100.00,SE,134,7.0,14.0,45,0.00,,,0.00,1.000000,,2013-04-13 11:46:00,
2013-04-13 06:54:00,57.0,36.0,-100.00,SE,134,7.0,14.0,45,0.00,,,0.00,1.000000,,2013-04-13 11:54:00,
2013-04-13 07:37:00,54.0,34.0,-100.00,ESE,107,4.0,10.0,46,0.00,,,0.00,1.000000,,2013-04-13 12:37:00,
2013-04-13 07:48:00,54.0,34.0,-100.00,ESE,107,4.0,10.0,46,0.00,,,0.00,1.000000,,2013-04-13 12:48:00,
2013-04-13 07:55:00,54.0,34.0,-100.00,ESE,107,4.0,10.0,46,0.00,,,0.00,1.000000,,2013-04-13 12:55:00,
2013-04-13 08:05:00,54.0,34.0,-100.00,ESE,107,4.0,10.0,46,0.00,,,0.00,1.000000,,2013-04-13 13:05:00,
2013-04-13 08:49:00,57.0,41.0,-100.00,ESE,112,5.0,8.0,54,0.00,,,0.00,67.000000,,2013-04-13 13:49:00,
2013-04-13 08:56:00,57.0,41.0,-100.00,ESE,112,5.0,8.0,54,0.00,,,0.00,67.000000,,2013-04-13 13:56:00,
2013-04-13 09:04:00,57.0,41.0,-100.00,ESE,112,5.0,8.0,54,0.00,,,0.00,67.000000,,2013-04-13 14:04:00,
2013-04-13 09:39:00,61.0,40.0,-100.00,SE,134,9.0,14.0,46,0.00,,,0.00,254.000000,,2013-04-13 14:39:00,
2013-04-13 09:59:00,61.0,40.0,-100.00,SE,134,9.0,14.0,46,0.00,,,0.00,254.000000,,2013-04-13 14:59:00,
2013-04-13 10:04:00,61.0,40.0,-100.00,SE,134,9.0,14.0,46,0.00,,,0.00,254.000000,,2013-04-13 15:04:00,
2013-04-13 10:38:00,67.0,43.0,-100.00,SE,143,13.0,19.0,41,0.00,,,0.00,456.000000,,2013-04-13 15:38:00,
2013-04-13 10:45:00,67.0,43.0,-100.00,SE,143,13.0,19.0,41,0.00,,,0.00,456.000000,,2013-04-13 15:45:00,
2013-04-13 10:58:00,67.0,43.0,-100.00,SE,143,13.0,19.0,41,0.00,,,0.00,456.000000,,2013-04-13 15:58:00,
2013-04-13 11:06:00,67.0,43.0,-100.00,SE,143,13.0,19.0,41,0.00,,,0.00,456.000000,,2013-04-13 16:06:00,
2013-04-13 12:38:00,76.0,34.0,-100.00,SE,145,16.0,24.0,22,-99.99,,,0.00,776.000000,,2013-04-13 17:38:00,
2013-04-13 12:45:00,76.0,34.0,-100.00,SE,145,16.0,24.0,22,-99.99,,,0.00,776.000000,,2013-04-13 17:45:00,
2013-04-13 13:03:00,76.0,34.0,-100.00,SE,145,16.0,24.0,22,-99.99,,,0.00,776.000000,,2013-04-13 18:03:00,
2013-04-13 13:33:00,78.0,35.0,-100.00,SSE,159,17.0,25.0,21,0.00,,,0.00,871.000000,,2013-04-13 18:33:00,
2013-04-13 13:42:00,78.0,35.0,-100.00,SSE,159,17.0,25.0,21,0.00,,,0.00,871.000000,,2013-04-13 18:42:00,
2013-04-13 13:53:00,78.0,35.0,-100.00,SSE,159,17.0,25.0,21,0.00,,,0.00,871.000000,,2013-04-13 18:53:00,
2013-04-13 14:03:00,78.0,35.0,-100.00,SSE,159,17.0,25.0,21,0.00,,,0.00,871.000000,,2013-04-13 19:03:00,
2013-04-13 14:33:00,80.0,35.0,-100.00,SE,141,16.0,25.0,20,0.00,,,0.00,911.000000,,2013-04-13 19:33:00,
2013-04-13 14:42:00,80.0,35.0,-100.00,SE,141,16.0,25.0,20,0.00,,,0.00,911.000000,,2013-04-13 19:42:00,
2013-04-13 14:53:00,80.0,35.0,-100.00,SE,141,16.0,25.0,20,0.00,,,0.00,911.000000,,2013-04-13 19:53:00,
2013-04-13 15:02:00,80.0,35.0,-100.00,SE,141,16.0,25.0,20,0.00,,,0.00,911.000000,,2013-04-13 20:02:00,
2013-04-13 15:32:00,79.0,36.0,-100.00,SE,136,14.0,26.0,21,0.00,,,0.00,775.000000,,2013-04-13 20:32:00,
2013-04-13 15:42:00,79.0,36.0,-100.00,SE,136,14.0,26.0,21,0.00,,,0.00,775.000000,,2013-04-13 20:42:00,
2013-04-13 15:52:00,79.0,36.0,-100.00,SE,136,14.0,26.0,21,0.00,,,0.00,775.000000,,2013-04-13 20:52:00,
2013-04-13 16:02:00,79.0,36.0,-100.00,SE,136,14.0,26.0,21,0.00,,,0.00,775.000000,,2013-04-13 21:02:00,
2013-04-13 16:33:00,80.0,38.0,-100.00,SE,142,13.0,25.0,22,0.00,,,0.00,565.000000,,2013-04-13 21:33:00,
2013-04-13 16:43:00,80.0,38.0,-100.00,SE,142,13.0,25.0,22,0.00,,,0.00,565.000000,,2013-04-13 21:43:00,
2013-04-13 16:53:00,80.0,38.0,-100.00,SE,142,13.0,25.0,22,0.00,,,0.00,565.000000,,2013-04-13 21:53:00,
2013-04-13 17:03:00,80.0,38.0,-100.00,SE,142,13.0,25.0,22,0.00,,,0.00,565.000000,,2013-04-13 22:03:00,
2013-04-13 17:33:00,80.0,39.0,-100.00,SE,144,12.0,24.0,23,0.00,,,0.00,470.000000,,2013-04-13 22:33:00,
2013-04-13 17:42:00,80.0,39.0,-100.00,SE,144,12.0,24.0,23,0.00,,,0.00,470.000000,,2013-04-13 22:42:00,
2013-04-13 17:53:00,80.0,39.0,-100.00,SE,144,12.0,24.0,23,0.00,,,0.00,470.000000,,2013-04-13 22:53:00,
2013-04-13 18:02:00,80.0,39.0,-100.00,SE,144,12.0,24.0,23,0.00,,,0.00,470.000000,,2013-04-13 23:02:00,
2013-04-13 18:33:00,80.0,38.0,-100.00,SE,130,14.0,22.0,22,0.00,,,0.00,367.000000,,2013-04-13 23:33:00,
2013-04-13 18:43:00,80.0,38.0,-100.00,SE,130,14.0,22.0,22,0.00,,,0.00,367.000000,,2013-04-13 23:43:00,
2013-04-13 18:53:00,80.0,38.0,-100.00,SE,130,14.0,22.0,22,0.00,,,0.00,367.000000,,2013-04-13 23:53:00,
2013-04-13 19:02:00,80.0,38.0,-100.00,SE,130,14.0,22.0,22,0.00,,,0.00,367.000000,,2013-04-14 00:02:00,
2013-04-13 20:33:00,74.0,40.0,-100.00,SE,142,11.0,19.0,29,-99.99,,,0.00,25.000000,,2013-04-14 01:33:00,
2013-04-13 20:42:00,74.0,40.0,-100.00,SE,142,11.0,19.0,29,-99.99,,,0.00,25.000000,,2013-04-14 01:42:00,
2013-04-13 20:53:00,74.0,40.0,-100.00,SE,142,11.0,19.0,29,-99.99,,,0.00,25.000000,,2013-04-14 01:53:00,
2013-04-13 21:02:00,74.0,40.0,-100.00,SE,142,11.0,19.0,29,-99.99,,,0.00,25.000000,,2013-04-14 02:02:00,
2013-04-13 21:33:00,71.0,40.0,-100.00,SSE,155,12.0,17.0,32,0.00,,,0.00,1.000000,,2013-04-14 02:33:00,
2013-04-13 21:43:00,71.0,40.0,-100.00,SSE,155,12.0,17.0,32,0.00,,,0.00,1.000000,,2013-04-14 02:43:00,
2013-04-13 21:53:00,71.0,40.0,-100.00,SSE,155,12.0,17.0,32,0.00,,,0.00,1.000000,,2013-04-14 02:53:00,
2013-04-13 22:02:00,71.0,40.0,-100.00,SSE,155,12.0,17.0,32,0.00,,,0.00,1.000000,,2013-04-14 03:02:00,
2013-04-13 22:33:00,69.0,45.0,-100.00,SSE,152,11.0,18.0,42,0.00,,,0.00,1.000000,,2013-04-14 03:33:00,
2013-04-13 22:43:00,69.0,45.0,-100.00,SSE,152,11.0,18.0,42,0.00,,,0.00,1.000000,,2013-04-14 03:43:00,
2013-04-13 22:53:00,69.0,45.0,-100.00,SSE,152,11.0,18.0,42,0.00,,,0.00,1.000000,,2013-04-14 03:53:00,
2013-04-13 23:02:00,69.0,45.0,-100.00,SSE,152,11.0,18.0,42,0.00,,,0.00,1.000000,,2013-04-14 04:02:00,
2013-04-13 23:33:00,69.0,48.0,-100.00,SE,144,12.0,19.0,48,0.00,,,0.00,1.000000,,2013-04-14 04:33:00,
2013-04-13 23:43:00,69.0,48.0,-100.00,SE,144,12.0,19.0,48,0.00,,,0.00,1.000000,,2013-04-14 04:43:00,
2013-04-13 23:52:00,69.0,48.0,-100.00,SE,144,12.0,19.0,48,0.00,,,0.00,1.000000,,2013-04-14 04:52:00,